createdAt,value
2019-04-25T00:00:48.479Z,10.30
2019-04-25T00:03:19.556Z,10.30
2019-04-25T00:05:48.920Z,10.30
2019-04-25T00:08:18.565Z,10.40
2019-04-25T00:10:48.109Z,10.30
2019-04-25T00:13:17.749Z,10.30
2019-04-25T00:15:48.044Z,10.30
2019-04-25T00:18:17.610Z,10.40
2019-04-25T00:20:52.229Z,10.40
2019-04-25T00:23:21.947Z,10.50
2019-04-25T00:26:11.352Z,10.50
2019-04-25T00:28:43.498Z,10.60
2019-04-25T00:31:13.011Z,10.60
2019-04-25T00:33:44.196Z,10.50
2019-04-25T00:36:13.499Z,10.50
2019-04-25T00:38:46.445Z,10.50
2019-04-25T00:41:15.604Z,10.50
2019-04-25T00:43:45.359Z,10.50
2019-04-25T00:46:14.871Z,10.40
2019-04-25T00:48:44.352Z,10.40
2019-04-25T00:51:13.860Z,10.40
2019-04-25T00:53:43.724Z,10.40
2019-04-25T00:56:14.052Z,10.40
2019-04-25T00:58:48.856Z,10.30
2019-04-25T01:01:22.780Z,10.30
2019-04-25T01:03:53.652Z,10.20
2019-04-25T01:06:23.373Z,10.20
2019-04-25T01:08:54.593Z,10.20
2019-04-25T01:11:23.861Z,10.20
2019-04-25T01:13:54.398Z,10.20
2019-04-25T01:16:23.862Z,10.10
2019-04-25T01:18:54.377Z,10.20
2019-04-25T01:21:25.292Z,10.10
2019-04-25T01:23:55.699Z,10.10
2019-04-25T01:26:25.188Z,10.10
2019-04-25T01:28:54.919Z,10.20
2019-04-25T01:31:26.338Z,10.20
2019-04-25T01:33:56.567Z,10.10
2019-04-25T01:36:27.675Z,10.10
2019-04-25T01:38:58.908Z,10.10
2019-04-25T01:41:39.132Z,10.10
2019-04-25T01:44:14.312Z,10.10
2019-04-25T01:46:45.544Z,10.10
2019-04-25T01:49:15.010Z,10.20
2019-04-25T01:51:44.373Z,10.30
2019-04-25T01:54:14.169Z,10.20
2019-04-25T01:56:44.340Z,10.20
2019-04-25T01:59:15.174Z,10.30
2019-04-25T02:01:44.794Z,10.20
2019-04-25T02:04:14.241Z,10.20
2019-04-25T02:06:44.251Z,10.20
2019-04-25T02:09:14.686Z,10.20
2019-04-25T02:11:45.807Z,10.10
2019-04-25T02:14:15.258Z,10.10
2019-04-25T02:16:44.654Z,10.10
2019-04-25T02:19:14.496Z,10.10
2019-04-25T02:21:44.097Z,10.10
2019-04-25T02:24:13.702Z,10.00
2019-04-25T02:26:43.770Z,10.00
2019-04-25T02:29:13.731Z,10.00
2019-04-25T02:31:44.994Z,10.00
2019-04-25T02:34:15.313Z,10.00
2019-04-25T02:36:47.047Z,10.00
2019-04-25T02:39:17.885Z,10.00
2019-04-25T02:41:47.261Z,10.00
2019-04-25T02:44:16.718Z,10.00
2019-04-25T02:46:50.476Z,10.00
2019-04-25T02:49:32.720Z,10.00
2019-04-25T02:51:59.148Z,10.00
2019-04-25T02:54:28.263Z,10.00
2019-04-25T02:56:58.418Z,9.90
2019-04-25T02:59:28.205Z,9.90
2019-04-25T03:01:58.991Z,9.90
2019-04-25T03:04:28.812Z,9.90
2019-04-25T03:06:59.115Z,9.90
2019-04-25T03:09:29.647Z,9.90
2019-04-25T03:11:59.924Z,9.90
2019-04-25T03:14:30.998Z,9.80
2019-04-25T03:17:00.447Z,9.80
2019-04-25T03:19:37.148Z,9.80
2019-04-25T03:22:11.425Z,9.80
2019-04-25T03:24:39.388Z,9.70
2019-04-25T03:27:09.161Z,9.80
2019-04-25T03:29:38.596Z,9.80
2019-04-25T03:32:11.778Z,9.80
2019-04-25T03:34:39.042Z,9.80
2019-04-25T03:37:09.398Z,9.70
2019-04-25T03:39:38.900Z,9.80
2019-04-25T03:42:08.340Z,9.80
2019-04-25T03:44:37.708Z,9.70
2019-04-25T03:47:07.747Z,9.70
2019-04-25T03:49:38.046Z,9.70
2019-04-25T03:52:07.970Z,9.70
2019-04-25T03:54:37.388Z,9.70
2019-04-25T03:57:07.527Z,9.70
2019-04-25T03:59:37.146Z,9.70
2019-04-25T04:02:07.886Z,9.70
2019-04-25T04:04:37.573Z,9.70
2019-04-25T04:07:08.817Z,9.80
2019-04-25T04:09:38.076Z,9.80
2019-04-25T04:12:07.981Z,9.70
2019-04-25T04:14:37.392Z,9.70
2019-04-25T04:17:23.753Z,9.70
2019-04-25T04:19:57.579Z,9.70
2019-04-25T04:22:44.620Z,9.70
2019-04-25T04:25:18.391Z,9.80
2019-04-25T04:27:47.897Z,9.80
2019-04-25T04:30:17.348Z,9.80
2019-04-25T04:32:46.746Z,9.80
2019-04-25T04:35:17.126Z,9.90
2019-04-25T04:37:46.954Z,9.90
2019-04-25T04:40:17.620Z,9.90
2019-04-25T04:42:47.807Z,9.90
2019-04-25T04:45:17.182Z,10.00
2019-04-25T04:47:46.497Z,10.00
2019-04-25T04:50:16.650Z,10.00
2019-04-25T04:52:46.299Z,10.00
2019-04-25T04:55:17.313Z,10.10
2019-04-25T04:57:46.980Z,10.00
2019-04-25T05:00:16.833Z,10.00
2019-04-25T05:02:56.716Z,10.00
2019-04-25T05:05:30.428Z,10.10
2019-04-25T05:08:00.563Z,10.10
2019-04-25T05:10:29.948Z,10.20
2019-04-25T05:12:59.314Z,10.20
2019-04-25T05:15:28.723Z,10.30
2019-04-25T05:17:58.158Z,10.60
2019-04-25T05:20:27.690Z,10.80
2019-04-25T05:22:57.050Z,11.10
2019-04-25T05:25:26.416Z,11.20
2019-04-25T05:28:02.952Z,11.20
2019-04-25T05:30:34.027Z,11.30
2019-04-25T05:33:03.968Z,11.40
2019-04-25T05:35:33.481Z,11.50
2019-04-25T05:38:03.393Z,11.50
2019-04-25T05:40:34.536Z,11.60
2019-04-25T05:43:05.770Z,11.60
2019-04-25T05:45:35.329Z,11.70
2019-04-25T05:48:06.083Z,11.80
2019-04-25T05:50:35.568Z,11.80
2019-04-25T05:53:04.957Z,11.80
2019-04-25T05:55:34.376Z,11.90
2019-04-25T05:58:04.067Z,11.90
2019-04-25T06:00:35.088Z,11.90
2019-04-25T06:03:04.725Z,11.90
2019-04-25T06:05:34.317Z,11.80
2019-04-25T06:08:04.356Z,11.90
2019-04-25T06:10:51.954Z,12.10
2019-04-25T06:13:33.238Z,12.30
2019-04-25T06:16:04.413Z,12.50
2019-04-25T06:18:38.006Z,12.50
2019-04-25T06:21:09.013Z,12.60
2019-04-25T06:23:50.458Z,12.60
2019-04-25T06:26:32.747Z,12.60
2019-04-25T06:28:57.180Z,12.40
2019-04-25T06:31:24.039Z,12.30
2019-04-25T06:33:56.138Z,12.40
2019-04-25T06:36:25.610Z,12.50
2019-04-25T06:38:55.039Z,12.60
2019-04-25T06:41:25.888Z,12.70
2019-04-25T06:43:57.119Z,12.80
2019-04-25T06:46:44.086Z,12.80
2019-04-25T06:49:18.212Z,12.80
2019-04-25T06:51:51.982Z,13.00
2019-04-25T06:54:22.810Z,12.90
2019-04-25T06:56:53.539Z,13.00
2019-04-25T06:59:25.680Z,13.10
2019-04-25T07:01:56.098Z,13.20
2019-04-25T07:04:27.027Z,13.40
2019-04-25T07:07:09.453Z,13.60
2019-04-25T07:09:29.557Z,13.90
2019-04-25T07:11:58.973Z,14.10
2019-04-25T07:14:31.546Z,14.40
2019-04-25T07:17:04.391Z,14.70
2019-04-25T07:19:34.383Z,14.70
2019-04-25T07:22:05.479Z,14.60
2019-04-25T07:24:35.335Z,14.80
2019-04-25T07:27:24.553Z,14.90
2019-04-25T07:30:01.788Z,15.10
2019-04-25T07:32:34.550Z,15.30
2019-04-25T07:35:05.520Z,15.50
2019-04-25T07:37:37.235Z,15.50
2019-04-25T07:40:08.019Z,15.50
2019-04-25T07:42:37.483Z,15.50
2019-04-25T07:45:09.406Z,15.70
2019-04-25T07:47:38.851Z,15.60
2019-04-25T07:50:08.405Z,15.40
2019-04-25T07:52:37.784Z,15.40
2019-04-25T07:55:07.640Z,15.40
2019-04-25T07:57:37.091Z,15.50
2019-04-25T08:00:13.195Z,15.70
2019-04-25T08:02:43.546Z,15.90
2019-04-25T08:05:15.719Z,16.20
2019-04-25T08:07:45.270Z,16.40
2019-04-25T08:10:15.371Z,16.50
2019-04-25T08:12:47.434Z,16.40
2019-04-25T08:15:18.153Z,16.50
2019-04-25T08:17:58.039Z,16.60
2019-04-25T08:20:29.112Z,16.60
2019-04-25T08:23:04.216Z,16.70
2019-04-25T08:25:37.706Z,16.70
2019-04-25T08:28:05.147Z,16.80
2019-04-25T08:30:35.645Z,16.90
2019-04-25T08:33:05.869Z,16.90
2019-04-25T08:35:36.430Z,16.80
2019-04-25T08:38:06.060Z,16.70
2019-04-25T08:40:37.318Z,16.70
2019-04-25T08:43:06.699Z,16.80
2019-04-25T08:45:37.389Z,16.90
2019-04-25T08:48:07.413Z,17.20
2019-04-25T08:50:53.720Z,17.50
2019-04-25T08:53:24.874Z,17.70
2019-04-25T08:56:04.943Z,17.90
2019-04-25T08:59:03.194Z,18.10
2019-04-25T09:01:44.970Z,18.20
2019-04-25T09:04:27.650Z,18.20
2019-04-25T09:06:57.015Z,18.30
2019-04-25T09:09:26.514Z,18.50
2019-04-25T09:11:55.895Z,18.70
2019-04-25T09:14:25.301Z,18.80
2019-04-25T09:16:54.666Z,18.80
2019-04-25T09:19:24.202Z,18.90
2019-04-25T09:21:53.669Z,19.00
2019-04-25T09:24:24.600Z,19.10
2019-04-25T09:26:54.173Z,19.30
2019-04-25T09:29:23.710Z,19.70
2019-04-25T09:31:53.775Z,19.80
2019-04-25T09:34:23.832Z,19.90
2019-04-25T09:36:56.125Z,20.10
2019-04-25T09:39:27.146Z,20.10
2019-04-25T09:41:56.523Z,20.10
2019-04-25T09:44:27.538Z,20.20
2019-04-25T09:46:56.950Z,20.60
2019-04-25T09:49:35.214Z,20.70
2019-04-25T09:52:08.929Z,21.00
2019-04-25T09:54:39.983Z,21.10
2019-04-25T10:00:33.409Z,20.80
2019-04-25T10:03:04.611Z,20.60
2019-04-25T10:05:34.221Z,20.50
2019-04-25T10:08:03.679Z,20.70
2019-04-25T10:10:33.134Z,20.90
2019-04-25T10:13:04.862Z,20.90
2019-04-25T10:15:46.424Z,20.90
2019-04-25T10:18:16.010Z,21.00
2019-04-25T10:20:46.343Z,21.10
2019-04-25T10:23:16.119Z,21.30
2019-04-25T10:25:46.544Z,21.40
2019-04-25T10:28:16.015Z,21.50
2019-04-25T10:30:45.764Z,21.70
2019-04-25T10:33:16.557Z,21.80
2019-04-25T10:35:51.940Z,21.90
2019-04-25T10:38:17.252Z,21.80
2019-04-25T10:40:47.628Z,21.60
2019-04-25T10:43:17.390Z,21.50
2019-04-25T10:45:47.620Z,21.70
2019-04-25T10:48:18.180Z,21.80
2019-04-25T10:50:48.451Z,21.70
2019-04-25T10:53:18.554Z,21.70
2019-04-25T10:55:48.118Z,21.90
2019-04-25T10:58:17.487Z,21.70
2019-04-25T11:00:48.869Z,21.90
2019-04-25T11:03:36.085Z,22.20
2019-04-25T11:06:06.040Z,22.80
2019-04-25T11:08:35.613Z,23.40
2019-04-25T11:11:05.202Z,24.10
2019-04-25T11:13:35.468Z,24.50
2019-04-25T11:16:06.221Z,25.00
2019-04-25T11:18:35.619Z,25.90
2019-04-25T11:21:06.123Z,27.70
2019-04-25T11:23:35.610Z,29.10
2019-04-25T11:26:05.330Z,30.50
2019-04-25T11:28:35.496Z,31.20
2019-04-25T11:31:07.223Z,30.30
2019-04-25T11:33:37.262Z,29.60
2019-04-25T11:36:06.622Z,30.50
2019-04-25T11:38:55.957Z,31.60
2019-04-25T11:41:26.152Z,32.50
2019-04-25T11:43:56.799Z,32.90
2019-04-25T11:46:27.031Z,34.00
2019-04-25T11:48:57.009Z,34.10
2019-04-25T11:51:27.110Z,33.90
2019-04-25T11:53:57.060Z,34.50
2019-04-25T11:56:27.091Z,35.10
2019-04-25T11:58:57.088Z,35.50
2019-04-25T12:01:27.136Z,35.70
2019-04-25T12:03:57.094Z,35.20
2019-04-25T12:06:27.130Z,34.20
2019-04-25T12:08:57.172Z,32.70
2019-04-25T12:11:27.223Z,30.50
2019-04-25T12:13:57.243Z,29.30
2019-04-25T12:16:27.253Z,29.00
2019-04-25T12:18:56.656Z,28.80
2019-04-25T12:21:26.101Z,28.30
2019-04-25T12:23:55.494Z,28.50
2019-04-25T12:26:26.327Z,29.40
2019-04-25T12:28:56.576Z,30.20
2019-04-25T12:31:26.646Z,30.60
2019-04-25T12:33:57.596Z,30.10
2019-04-25T12:36:27.578Z,30.00
2019-04-25T12:38:57.038Z,30.20
2019-04-25T12:41:27.077Z,30.20
2019-04-25T12:44:01.387Z,30.10
2019-04-25T12:46:39.021Z,30.80
2019-04-25T12:49:08.969Z,30.80
2019-04-25T12:51:38.966Z,31.70
2019-04-25T12:54:08.931Z,32.90
2019-04-25T12:56:38.857Z,33.50
2019-04-25T12:59:08.814Z,32.30
2019-04-25T13:01:38.848Z,31.70
2019-04-25T13:04:10.540Z,31.60
2019-04-25T13:06:40.496Z,32.70
2019-04-25T13:09:12.891Z,34.40
2019-04-25T13:11:43.479Z,35.00
2019-04-25T13:14:13.554Z,35.60
2019-04-25T13:16:44.310Z,36.40
2019-04-25T13:19:21.105Z,37.30
2019-04-25T13:21:46.215Z,37.30
2019-04-25T13:24:16.227Z,36.80
2019-04-25T13:26:56.979Z,36.30
2019-04-25T13:29:37.159Z,36.50
2019-04-25T13:32:11.756Z,36.40
2019-04-25T13:34:45.823Z,35.60
2019-04-25T13:37:16.530Z,35.30
2019-04-25T13:39:46.586Z,34.50
2019-04-25T13:42:16.800Z,33.60
2019-04-25T13:44:46.865Z,33.40
2019-04-25T13:47:17.863Z,33.00
2019-04-25T13:49:47.787Z,31.70
2019-04-25T13:52:17.840Z,30.60
2019-04-25T13:54:47.985Z,30.20
2019-04-25T13:57:18.013Z,29.80
2019-04-25T13:59:48.102Z,29.80
2019-04-25T14:02:18.419Z,29.90
2019-04-25T14:04:48.450Z,30.20
2019-04-25T14:07:18.445Z,30.40
2019-04-25T14:09:50.085Z,30.30
2019-04-25T14:12:20.535Z,30.70
2019-04-25T14:14:50.694Z,30.70
2019-04-25T14:17:23.101Z,30.50
2019-04-25T14:19:55.683Z,30.10
2019-04-25T14:22:26.210Z,29.80
2019-04-25T14:24:55.572Z,29.20
2019-04-25T14:27:26.292Z,28.90
2019-04-25T14:29:56.361Z,28.70
2019-04-25T14:32:28.699Z,28.40
2019-04-25T14:34:57.686Z,28.20
2019-04-25T14:37:31.283Z,27.80
2019-04-25T14:39:58.765Z,27.50
2019-04-25T14:42:28.603Z,27.30
2019-04-25T14:44:58.136Z,27.10
2019-04-25T14:47:27.566Z,26.80
2019-04-25T14:49:56.990Z,26.60
2019-04-25T14:52:26.379Z,26.50
2019-04-25T14:55:00.134Z,26.50
2019-04-25T14:57:39.157Z,26.70
2019-04-25T15:00:10.327Z,26.90
2019-04-25T15:02:40.753Z,26.80
2019-04-25T15:05:10.348Z,27.00
2019-04-25T15:07:40.631Z,27.00
2019-04-25T15:10:10.294Z,27.70
2019-04-25T15:12:39.669Z,28.70
2019-04-25T15:15:09.486Z,29.10
2019-04-25T15:17:46.466Z,29.00
2019-04-25T15:20:11.259Z,29.20
2019-04-25T15:22:40.710Z,29.30
2019-04-25T15:25:13.041Z,29.30
2019-04-25T15:27:42.999Z,29.10
2019-04-25T15:30:14.648Z,28.70
2019-04-25T15:32:44.079Z,28.30
2019-04-25T15:35:15.096Z,27.90
2019-04-25T15:37:46.136Z,27.70
2019-04-25T15:40:20.644Z,27.70
2019-04-25T15:43:10.342Z,29.60
2019-04-25T15:45:45.026Z,30.90
2019-04-25T15:48:14.409Z,31.40
2019-04-25T15:50:44.521Z,30.60
2019-04-25T15:53:15.605Z,30.90
2019-04-25T15:55:45.648Z,31.20
2019-04-25T15:58:15.740Z,30.00
2019-04-25T16:00:45.260Z,28.60
2019-04-25T16:03:14.829Z,27.70
2019-04-25T16:05:44.305Z,27.00
2019-04-25T16:08:13.792Z,26.40
2019-04-25T16:10:43.244Z,25.70
2019-04-25T16:13:12.671Z,24.90
2019-04-25T16:15:42.066Z,24.00
2019-04-25T16:18:11.427Z,23.60
2019-04-25T16:20:40.852Z,23.70
2019-04-25T16:23:10.656Z,23.90
2019-04-25T16:25:40.202Z,24.30
2019-04-25T16:28:09.890Z,25.20
2019-04-25T16:30:40.962Z,26.40
2019-04-25T16:33:10.653Z,27.10
2019-04-25T16:35:40.273Z,27.30
2019-04-25T16:38:10.514Z,26.60
2019-04-25T16:40:39.970Z,26.40
2019-04-25T16:43:11.074Z,25.10
2019-04-25T16:45:41.377Z,24.20
2019-04-25T16:48:11.269Z,24.00
2019-04-25T16:50:40.677Z,23.70
2019-04-25T16:53:10.106Z,23.40
2019-04-25T16:55:39.518Z,22.50
2019-04-25T16:58:09.377Z,22.40
2019-04-25T17:00:40.791Z,22.20
2019-04-25T17:03:10.750Z,22.00
2019-04-25T17:05:40.460Z,21.50
2019-04-25T17:08:10.353Z,21.00
2019-04-25T17:10:39.846Z,20.80
2019-04-25T17:13:09.425Z,20.70
2019-04-25T17:15:41.060Z,20.30
2019-04-25T17:18:18.206Z,19.90
2019-04-25T17:20:54.972Z,19.70
2019-04-25T17:23:24.393Z,19.30
2019-04-25T17:25:53.837Z,19.20
2019-04-25T17:28:23.447Z,19.00
2019-04-25T17:30:54.691Z,18.90
2019-04-25T17:33:35.517Z,18.70
2019-04-25T17:36:12.490Z,18.60
2019-04-25T17:38:43.672Z,18.50
2019-04-25T17:41:13.031Z,18.40
2019-04-25T17:43:42.464Z,18.30
2019-04-25T17:46:13.538Z,18.20
2019-04-25T17:48:43.644Z,18.20
2019-04-25T17:51:15.512Z,18.10
2019-04-25T17:53:44.895Z,18.10
2019-04-25T17:56:14.343Z,18.10
2019-04-25T17:58:43.748Z,18.00
2019-04-25T18:01:15.025Z,17.90
2019-04-25T18:03:44.549Z,17.90
2019-04-25T18:06:13.939Z,17.70
2019-04-25T18:08:44.145Z,17.50
2019-04-25T18:11:13.773Z,17.40
2019-04-25T18:13:43.749Z,17.30
2019-04-25T18:16:17.496Z,17.20
2019-04-25T18:19:06.254Z,17.20
2019-04-25T18:21:36.769Z,17.10
2019-04-25T18:24:10.789Z,17.10
2019-04-25T18:26:56.649Z,17.00
2019-04-25T18:29:26.886Z,16.90
2019-04-25T18:31:56.369Z,16.90
2019-04-25T18:34:36.067Z,16.90
2019-04-25T18:37:08.373Z,16.90
2019-04-25T18:39:39.885Z,16.90
2019-04-25T18:42:11.059Z,16.80
2019-04-25T18:44:40.515Z,16.70
2019-04-25T18:47:09.887Z,16.40
2019-04-25T18:49:40.497Z,16.20
2019-04-25T18:52:11.547Z,16.10
2019-04-25T18:54:45.295Z,16.00
2019-04-25T18:57:22.041Z,15.90
2019-04-25T18:59:55.794Z,15.90
2019-04-25T19:02:32.521Z,15.90
2019-04-25T19:05:19.624Z,15.80
2019-04-25T19:07:49.092Z,15.60
2019-04-25T19:10:18.917Z,15.40
2019-04-25T19:12:49.883Z,15.50
2019-04-25T19:15:19.448Z,15.50
2019-04-25T19:17:48.815Z,15.40
2019-04-25T19:20:18.252Z,15.30
2019-04-25T19:22:48.318Z,15.30
2019-04-25T19:25:17.868Z,15.20
2019-04-25T19:27:47.325Z,15.20
2019-04-25T19:30:18.894Z,15.20
2019-04-25T19:32:49.115Z,15.20
2019-04-25T19:35:19.135Z,15.20
2019-04-25T19:37:48.670Z,15.20
2019-04-25T19:40:34.934Z,15.20
2019-04-25T19:43:17.736Z,15.30
2019-04-25T19:45:47.090Z,15.20
2019-04-25T19:48:16.512Z,15.20
2019-04-25T19:50:46.040Z,15.10
2019-04-25T19:53:15.434Z,15.10
2019-04-25T19:55:45.464Z,15.20
2019-04-25T19:58:15.042Z,15.10
2019-04-25T20:00:44.605Z,15.20
2019-04-25T20:03:20.444Z,15.20
2019-04-25T20:06:08.983Z,15.20
2019-04-25T20:08:40.043Z,15.10
2019-04-25T20:11:19.803Z,15.20
2019-04-25T20:13:49.237Z,15.30
2019-04-25T20:16:18.651Z,15.30
2019-04-25T20:18:49.811Z,15.20
2019-04-25T20:21:19.207Z,15.20
2019-04-25T20:23:48.584Z,15.10
2019-04-25T20:26:18.002Z,15.10
2019-04-25T20:28:48.299Z,15.10
2019-04-25T20:31:17.747Z,15.10
2019-04-25T20:33:47.119Z,15.10
2019-04-25T20:36:17.777Z,15.20
2019-04-25T20:38:47.548Z,15.10
2019-04-25T20:41:17.162Z,15.00
2019-04-25T20:43:47.546Z,14.90
2019-04-25T20:46:17.398Z,14.80
2019-04-25T20:48:46.886Z,14.90
2019-04-25T20:51:16.728Z,14.80
2019-04-25T20:53:46.473Z,14.80
2019-04-25T20:56:16.862Z,14.80
2019-04-25T20:58:47.703Z,14.70
2019-04-25T21:01:17.285Z,14.70
2019-04-25T21:03:47.524Z,14.70
2019-04-25T21:06:19.579Z,14.70
2019-04-25T21:08:49.062Z,14.60
2019-04-25T21:11:19.399Z,14.50
2019-04-25T21:14:02.577Z,14.50
2019-04-25T21:16:36.601Z,14.60
2019-04-25T21:19:13.074Z,14.50
2019-04-25T21:21:42.581Z,14.60
2019-04-25T21:24:12.036Z,14.60
2019-04-25T21:26:41.684Z,14.60
2019-04-25T21:29:11.191Z,14.70
2019-04-25T21:31:40.694Z,14.70
2019-04-25T21:34:10.138Z,14.70
2019-04-25T21:36:39.814Z,14.60
2019-04-25T21:39:13.445Z,14.60
2019-04-25T21:41:53.743Z,14.60
2019-04-25T21:44:23.457Z,14.60
2019-04-25T21:46:53.657Z,14.70
2019-04-25T21:49:25.693Z,14.60
2019-04-25T21:51:55.268Z,14.60
2019-04-25T21:54:24.763Z,14.50
2019-04-25T21:56:55.406Z,14.50
2019-04-25T21:59:25.180Z,14.50
2019-04-25T22:01:56.278Z,14.40
2019-04-25T22:04:37.988Z,14.30
2019-04-25T22:06:57.036Z,14.30
2019-04-25T22:09:26.744Z,14.20
2019-04-25T22:11:57.317Z,14.20
2019-04-25T22:14:26.759Z,14.00
2019-04-25T22:16:56.927Z,14.00
2019-04-25T22:19:27.341Z,14.00
2019-04-25T22:21:57.481Z,14.00
2019-04-25T22:24:28.157Z,13.80
2019-04-25T22:26:59.321Z,13.80
2019-04-25T22:29:29.234Z,13.70
2019-04-25T22:32:06.317Z,13.60
2019-04-25T22:34:54.757Z,13.70
2019-04-25T22:37:24.277Z,13.60
2019-04-25T22:39:54.013Z,13.60
2019-04-25T22:42:23.394Z,13.60
2019-04-25T22:44:52.983Z,13.70
2019-04-25T22:47:22.496Z,13.60
2019-04-25T22:49:51.869Z,13.60
2019-04-25T22:52:21.623Z,13.60
2019-04-25T22:54:51.190Z,13.50
2019-04-25T22:57:20.894Z,13.40
2019-04-25T22:59:50.283Z,13.30
2019-04-25T23:02:21.282Z,13.30
2019-04-25T23:05:05.525Z,13.20
2019-04-25T23:07:26.664Z,13.10
2019-04-25T23:09:56.407Z,13.10
2019-04-25T23:12:26.180Z,12.90
2019-04-25T23:14:55.740Z,12.70
2019-04-25T23:17:25.124Z,12.80
2019-04-25T23:19:55.223Z,12.70
2019-04-25T23:22:24.675Z,12.60
2019-04-25T23:24:58.625Z,12.60
2019-04-25T23:27:35.409Z,12.70
2019-04-25T23:30:08.093Z,12.70
2019-04-25T23:32:37.923Z,12.60
2019-04-25T23:35:22.209Z,12.60
2019-04-25T23:37:38.435Z,12.50
2019-04-25T23:40:08.163Z,12.40
2019-04-25T23:42:37.602Z,12.30
2019-04-25T23:45:08.507Z,12.30
2019-04-25T23:47:37.881Z,12.30
2019-04-25T23:50:08.676Z,12.30
2019-04-25T23:52:38.146Z,12.40
2019-04-25T23:55:08.344Z,12.40
2019-04-25T23:57:38.836Z,12.40
